Time;durP1;ratioP1;P1;durP2;ratioP2;P2;SDS_P1;SDS_P2;PMS_P1;PMS_P2;Temp;Humidity;BMP_temperature;BMP_pressure;BME280_temperature;BME280_humidity;BME280_pressure;Samples;Min_cycle;Max_cycle;Signal;HPM_P1;HPM_P2
2023/07/16 00:01:28;;;;;;;13.00;8.40;;;;;;;18.43;94.40;98837.98;270683;1253;22689;-78
2023/07/16 00:07:30;;;;;;;15.90;9.30;;;;;;;18.46;95.04;98833.52;270472;1269;25287;-78
2023/07/16 00:13:32;;;;;;;14.60;9.50;;;;;;;18.43;95.19;98826.10;270326;1268;23328;-77
2023/07/16 00:19:34;;;;;;;12.40;7.70;;;;;;;18.30;95.21;98817.48;272935;1258;22331;-78
2023/07/16 00:25:36;;;;;;;10.00;8.40;;;;;;;18.19;95.76;98817.50;272035;1268;23825;-78
2023/07/16 00:31:38;;;;;;;16.30;8.00;;;;;;;18.13;96.14;98816.29;271554;1268;22569;-78
2023/07/16 00:37:40;;;;;;;12.10;8.40;;;;;;;18.02;96.31;98811.06;270934;1269;22611;-77
2023/07/16 00:43:42;;;;;;;17.80;9.60;;;;;;;17.89;96.57;98808.09;269935;1267;22535;-79
2023/07/16 00:49:44;;;;;;;11.40;9.00;;;;;;;17.79;96.77;98809.11;271662;1257;22536;-79
2023/07/16 00:55:47;;;;;;;11.90;9.00;;;;;;;17.69;97.37;98799.75;272117;1259;22313;-77
2023/07/16 01:01:49;;;;;;;13.50;9.90;;;;;;;17.63;97.62;98800.19;271780;1256;22990;-77
2023/07/16 01:07:58;;;;;;;16.30;9.10;;;;;;;17.52;98.01;98797.48;269222;1260;22725;-77
2023/07/16 01:14:09;;;;;;;9.50;7.90;;;;;;;17.47;98.65;98789.91;269313;1269;22653;-78
2023/07/16 01:20:11;;;;;;;13.30;10.00;;;;;;;17.45;99.02;98789.95;269707;1269;22546;-78
2023/07/16 01:26:31;;;;;;;14.00;9.50;;;;;;;17.37;99.02;98784.39;269398;1268;24319;-77
2023/07/16 01:32:37;;;;;;;18.40;9.60;;;;;;;17.24;99.34;98781.31;269788;1256;24271;-77
2023/07/16 01:38:54;;;;;;;11.20;8.40;;;;;;;17.17;99.78;98776.38;269128;1268;23849;-78
2023/07/16 01:44:56;;;;;;;12.60;9.50;;;;;;;17.09;99.99;98765.39;269369;1269;22632;-79
2023/07/16 01:50:57;;;;;;;13.50;9.50;;;;;;;16.99;99.99;98761.80;269247;1269;22517;-79
2023/07/16 01:56:59;;;;;;;13.30;9.80;;;;;;;16.92;100.00;98763.83;268615;1269;22540;-79
2023/07/16 02:03:01;;;;;;;12.30;9.40;;;;;;;16.91;100.00;98759.73;270197;1269;22293;-78
2023/07/16 02:09:03;;;;;;;12.00;9.90;;;;;;;16.86;100.00;98756.58;272640;1269;22451;-79
2023/07/16 02:15:05;;;;;;;15.30;9.60;;;;;;;16.82;100.00;98760.59;269366;1268;22624;-78
2023/07/16 02:21:10;;;;;;;16.90;10.20;;;;;;;16.83;100.00;98764.52;271388;1269;23058;-78
2023/07/16 02:27:12;;;;;;;15.40;10.30;;;;;;;16.83;100.00;98765.32;270698;1263;22509;-78
2023/07/16 02:33:23;;;;;;;13.90;10.20;;;;;;;16.79;100.00;98760.96;271216;1268;23548;-79
2023/07/16 02:39:25;;;;;;;13.80;10.90;;;;;;;16.69;100.00;98761.86;272216;1268;23338;-78
2023/07/16 02:45:26;;;;;;;14.50;10.70;;;;;;;16.62;100.00;98756.85;273413;1268;22185;-79
2023/07/16 02:51:28;;;;;;;13.10;10.00;;;;;;;16.56;100.00;98755.77;273145;1259;23207;-79
2023/07/16 02:57:30;;;;;;;13.70;9.60;;;;;;;16.54;100.00;98757.05;272480;1257;25422;-78
2023/07/16 03:03:32;;;;;;;15.00;9.20;;;;;;;16.53;100.00;98755.25;270501;1256;23368;-80
2023/07/16 03:09:34;;;;;;;11.00;9.80;;;;;;;16.54;100.00;98757.36;273216;1256;22479;-79
2023/07/16 03:15:35;;;;;;;10.70;9.10;;;;;;;16.51;100.00;98759.46;273217;1268;509423;-78
2023/07/16 03:21:37;;;;;;;12.40;10.00;;;;;;;16.54;100.00;98765.89;273077;1269;22435;-78
2023/07/16 03:27:39;;;;;;;12.80;10.00;;;;;;;16.52;100.00;98775.79;273311;1269;22411;-78
2023/07/16 03:33:41;;;;;;;15.90;10.80;;;;;;;16.50;100.00;98772.27;273265;1264;22626;-77
2023/07/16 03:39:43;;;;;;;11.60;10.40;;;;;;;16.54;100.00;98770.08;273236;1269;22765;-78
2023/07/16 03:45:45;;;;;;;12.00;10.70;;;;;;;16.58;100.00;98774.21;273096;1262;22386;-77
2023/07/16 03:51:47;;;;;;;12.90;10.60;;;;;;;16.61;100.00;98774.30;273368;1269;22455;-77
2023/07/16 03:57:49;;;;;;;17.20;11.40;;;;;;;16.67;100.00;98776.02;273112;1268;23157;-78
2023/07/16 04:03:52;;;;;;;11.60;9.60;;;;;;;16.79;100.00;98769.81;273353;1269;22374;-77
2023/07/16 04:09:54;;;;;;;12.90;10.20;;;;;;;16.95;100.00;98771.90;273142;1269;22429;-78
2023/07/16 04:15:57;;;;;;;12.90;9.90;;;;;;;17.10;100.00;98773.10;273381;1254;22210;-77
2023/07/16 04:21:59;;;;;;;11.10;8.60;;;;;;;17.27;100.00;98781.02;273370;1260;22348;-77
2023/07/16 04:28:03;;;;;;;9.90;8.90;;;;;;;17.47;100.00;98783.82;273500;1269;22348;-78
2023/07/16 04:34:05;;;;;;;10.50;8.70;;;;;;;17.69;100.00;98785.20;273455;1253;23345;-78
2023/07/16 04:40:08;;;;;;;12.10;9.30;;;;;;;17.87;100.00;98793.91;273488;1269;23588;-78
2023/07/16 04:46:11;;;;;;;13.80;10.20;;;;;;;18.06;100.00;98804.72;273577;1268;22420;-78
2023/07/16 04:52:13;;;;;;;13.70;9.80;;;;;;;18.27;100.00;98810.89;272462;1261;22674;-78
2023/07/16 04:58:18;;;;;;;13.50;10.60;;;;;;;18.53;100.00;98815.31;273196;1256;22836;-79
2023/07/16 05:04:19;;;;;;;16.30;10.90;;;;;;;18.76;100.00;98827.44;273215;1265;22305;-78
2023/07/16 05:10:22;;;;;;;13.40;9.70;;;;;;;18.98;100.00;98839.65;273289;1269;22416;-78
2023/07/16 05:16:23;;;;;;;13.70;10.10;;;;;;;19.18;100.00;98844.37;273386;1269;23013;-78
2023/07/16 05:22:25;;;;;;;13.70;9.30;;;;;;;19.40;100.00;98846.74;273554;1268;23624;-78
2023/07/16 05:28:27;;;;;;;11.20;9.70;;;;;;;19.65;100.00;98847.96;272016;1269;22539;-78
2023/07/16 05:34:28;;;;;;;11.80;9.00;;;;;;;19.94;100.00;98855.70;272146;1256;23242;-78
2023/07/16 05:40:32;;;;;;;11.20;8.90;;;;;;;20.28;100.00;98851.55;272357;1269;23289;-79
2023/07/16 05:46:34;;;;;;;10.40;8.60;;;;;;;20.61;100.00;98848.40;271945;1269;22442;-78
2023/07/16 05:52:41;;;;;;;13.30;9.40;;;;;;;20.94;100.00;98853.55;272054;1253;22536;-78
2023/07/16 05:58:43;;;;;;;10.60;8.50;;;;;;;21.35;100.00;98859.30;272922;1268;23585;-78
2023/07/16 06:04:44;;;;;;;8.70;7.20;;;;;;;21.56;100.00;98856.09;273293;1269;22434;-77
2023/07/16 06:10:47;;;;;;;13.50;7.20;;;;;;;21.84;100.00;98856.03;273952;1269;23176;-78
2023/07/16 06:16:49;;;;;;;8.50;7.60;;;;;;;22.14;100.00;98854.10;273443;1256;22279;-79
2023/07/16 06:22:51;;;;;;;10.90;7.70;;;;;;;22.46;100.00;98857.76;273357;1269;22501;-78
2023/07/16 06:28:52;;;;;;;9.60;6.80;;;;;;;22.71;100.00;98861.09;273431;1269;22710;-78
2023/07/16 06:35:05;;;;;;;8.50;6.60;;;;;;;22.93;100.00;98860.98;273502;1256;22127;-78
2023/07/16 06:41:07;;;;;;;7.60;6.20;;;;;;;23.18;100.00;98858.73;273009;1269;22438;-78
2023/07/16 06:47:09;;;;;;;6.40;5.80;;;;;;;23.50;100.00;98865.46;273407;1269;22164;-80
2023/07/16 06:53:11;;;;;;;7.70;5.70;;;;;;;23.81;99.52;98872.90;273211;1259;22971;-79
2023/07/16 06:59:13;;;;;;;6.30;5.60;;;;;;;24.25;97.71;98880.81;273168;1268;22518;-78
2023/07/16 07:05:14;;;;;;;8.90;5.70;;;;;;;24.98;96.67;98882.29;273052;1269;23569;-78
2023/07/16 07:11:16;;;;;;;8.20;5.10;;;;;;;25.79;94.50;98871.14;273125;1269;22412;-79
2023/07/16 07:17:18;;;;;;;5.50;4.10;;;;;;;26.55;92.05;98879.90;273203;1269;22214;-79
2023/07/16 07:23:20;;;;;;;6.10;3.60;;;;;;;27.28;88.86;98885.29;272154;1269;22461;-78
2023/07/16 07:29:25;;;;;;;4.90;4.10;;;;;;;27.95;86.03;98892.41;272342;1260;22443;-79
2023/07/16 07:35:27;;;;;;;7.60;4.50;;;;;;;28.60;83.51;98901.70;273595;1259;22287;-79
2023/07/16 07:41:29;;;;;;;4.90;3.90;;;;;;;28.98;80.07;98921.34;272951;1269;22562;-79
2023/07/16 07:47:31;;;;;;;4.60;3.40;;;;;;;29.23;77.66;98932.77;273240;1262;22190;-79
2023/07/16 07:53:33;;;;;;;5.10;3.70;;;;;;;29.44;75.29;98946.23;273548;1253;22422;-80
2023/07/16 07:59:35;;;;;;;4.30;3.70;;;;;;;29.62;75.08;98954.45;273447;1269;22337;-79
2023/07/16 08:05:38;;;;;;;4.30;3.70;;;;;;;29.63;73.93;98958.39;273253;1263;22310;-80
2023/07/16 08:11:40;;;;;;;3.90;3.40;;;;;;;29.58;71.70;98960.98;273472;1269;22304;-80
2023/07/16 08:17:42;;;;;;;5.70;3.10;;;;;;;29.60;69.87;98958.38;273887;1269;22173;-80
2023/07/16 08:23:52;;;;;;;7.10;3.30;;;;;;;29.67;68.27;98964.28;273298;1257;22426;-82
2023/07/16 08:30:00;;;;;;;5.50;3.80;;;;;;;29.74;66.63;98963.35;273207;1269;22388;-80
2023/07/16 08:36:02;;;;;;;5.30;3.50;;;;;;;29.85;65.83;98962.17;273448;1259;23224;-79
2023/07/16 08:42:04;;;;;;;4.40;3.50;;;;;;;30.01;65.17;98964.70;273423;1269;22397;-80
2023/07/16 08:48:07;;;;;;;6.20;4.00;;;;;;;29.99;64.06;98970.60;273551;1259;23004;-79
2023/07/16 08:54:09;;;;;;;5.80;3.30;;;;;;;29.88;62.33;98970.65;273302;1259;23203;-81
2023/07/16 09:00:11;;;;;;;5.50;3.20;;;;;;;29.80;60.95;98970.25;273417;1269;25428;-79
2023/07/16 09:06:13;;;;;;;6.70;3.20;;;;;;;29.80;60.16;98970.67;272579;1262;22096;-79
2023/07/16 09:12:15;;;;;;;4.10;3.50;;;;;;;29.88;59.57;98966.67;272830;1266;22480;-80
2023/07/16 09:18:35;;;;;;;5.20;3.50;;;;;;;29.88;59.10;98965.79;273487;1268;22381;-79
2023/07/16 09:24:37;;;;;;;6.00;3.60;;;;;;;29.94;59.38;98963.25;273375;1269;22608;-78
2023/07/16 09:30:39;;;;;;;5.10;3.50;;;;;;;30.13;58.60;98960.77;273384;1269;22400;-81
2023/07/16 09:36:41;;;;;;;3.60;3.10;;;;;;;30.43;58.42;98961.98;273393;1264;22259;-78
2023/07/16 09:42:43;;;;;;;10.30;4.00;;;;;;;30.81;57.77;98957.87;273323;1269;22445;-79
2023/07/16 09:48:45;;;;;;;4.60;3.60;;;;;;;31.29;56.82;98956.23;273388;1269;23102;-80
2023/07/16 09:54:47;;;;;;;4.90;3.60;;;;;;;31.76;55.91;98953.61;273235;1257;22472;-80
2023/07/16 10:00:49;;;;;;;4.40;3.30;;;;;;;32.04;53.98;98956.66;273440;1268;22485;-79
2023/07/16 10:06:57;;;;;;;3.80;3.30;;;;;;;32.51;53.21;98957.77;273572;1269;22451;-78
2023/07/16 10:13:02;;;;;;;4.00;3.20;;;;;;;32.93;52.13;98955.63;273496;1269;22412;-79
2023/07/16 10:19:04;;;;;;;4.10;3.20;;;;;;;33.27;51.59;98952.35;273507;1269;22449;-79
2023/07/16 10:25:29;;;;;;;3.70;3.30;;;;;;;33.48;51.04;98949.98;273594;1269;22272;-79
2023/07/16 10:31:33;;;;;;;3.60;3.30;;;;;;;33.73;50.04;98945.54;273459;1268;22375;-79
2023/07/16 10:37:45;;;;;;;6.50;3.70;;;;;;;33.97;49.06;98943.20;273260;1260;22102;-80
2023/07/16 10:43:47;;;;;;;4.10;3.10;;;;;;;34.15;48.45;98935.34;273580;1269;22242;-79
2023/07/16 10:49:51;;;;;;;5.40;3.10;;;;;;;34.14;47.22;98937.95;273346;1260;23271;-83
2023/07/16 10:55:53;;;;;;;4.60;2.90;;;;;;;34.15;46.64;98933.03;273555;1269;23524;-80
2023/07/16 11:01:55;;;;;;;5.00;3.30;;;;;;;34.22;45.82;98933.17;273536;1268;22472;-80
2023/07/16 11:07:57;;;;;;;4.60;2.90;;;;;;;34.32;45.55;98929.23;273572;1268;22347;-80
2023/07/16 11:13:58;;;;;;;3.30;2.80;;;;;;;34.46;44.92;98927.77;273508;1269;22575;-80
2023/07/16 11:20:02;;;;;;;4.00;2.60;;;;;;;34.58;44.38;98928.81;274043;1263;23907;-78
2023/07/16 11:26:04;;;;;;;2.70;2.30;;;;;;;34.80;43.63;98920.95;272830;1270;22524;-82
2023/07/16 11:32:07;;;;;;;3.00;2.60;;;;;;;34.92;42.41;98917.02;271205;1269;23410;-79
2023/07/16 11:38:11;;;;;;;3.80;2.60;;;;;;;35.08;42.08;98914.40;271657;1269;22618;-79
2023/07/16 11:44:15;;;;;;;2.70;2.20;;;;;;;35.24;40.82;98910.71;271579;1269;22501;-80
2023/07/16 11:50:17;;;;;;;4.30;3.10;;;;;;;35.32;40.34;98919.41;271323;1269;24187;-80
2023/07/16 11:56:19;;;;;;;5.40;3.20;;;;;;;35.32;39.91;98917.91;272794;1269;22326;-79
2023/07/16 12:02:22;;;;;;;3.30;2.80;;;;;;;35.44;39.98;98914.25;272471;1259;24240;-80
2023/07/16 12:08:26;;;;;;;4.90;3.00;;;;;;;35.26;40.36;98912.43;270459;1269;25316;-80
2023/07/16 12:14:28;;;;;;;6.90;3.50;;;;;;;34.92;39.83;98905.31;270679;1269;24000;-79
2023/07/16 12:20:30;;;;;;;5.00;3.80;;;;;;;34.42;40.21;98901.23;270038;1269;22846;-80
2023/07/16 12:26:33;;;;;;;4.80;4.20;;;;;;;33.95;40.43;98904.57;270620;1268;23410;-79
2023/07/16 12:32:34;;;;;;;5.20;4.10;;;;;;;33.61;40.52;98904.92;271304;1269;22543;-79
2023/07/16 12:38:36;;;;;;;5.40;4.50;;;;;;;33.25;40.55;98899.04;273072;1269;22108;-79
2023/07/16 12:44:38;;;;;;;6.40;4.70;;;;;;;32.94;41.02;98897.73;271261;1269;22412;-80
2023/07/16 12:51:03;;;;;;;6.20;5.10;;;;;;;32.82;41.45;98895.35;272900;1269;22248;-80
2023/07/16 12:57:05;;;;;;;5.70;5.20;;;;;;;32.74;41.92;98889.95;273538;1269;22480;-81
2023/07/16 13:03:11;;;;;;;5.50;4.90;;;;;;;32.60;41.79;98884.04;273288;1269;22380;-80
2023/07/16 13:09:30;;;;;;;5.90;5.30;;;;;;;32.49;42.27;98882.08;273519;1267;22403;-80
2023/07/16 13:15:32;;;;;;;6.30;5.70;;;;;;;32.40;42.11;98884.77;273570;1267;23523;-80
2023/07/16 13:21:34;;;;;;;6.30;5.40;;;;;;;32.26;42.89;98886.92;273669;1267;22255;-80
2023/07/16 13:27:35;;;;;;;6.20;5.20;;;;;;;32.12;43.40;98885.16;272467;1253;23652;-80
2023/07/16 13:33:37;;;;;;;8.40;6.10;;;;;;;31.91;43.48;98883.46;271314;1266;22576;-79
2023/07/16 13:39:39;;;;;;;6.10;5.50;;;;;;;31.75;44.24;98884.61;272166;1267;22965;-80
2023/07/16 13:45:41;;;;;;;6.40;5.70;;;;;;;31.73;44.29;98886.17;273357;1264;23372;-80
2023/07/16 13:51:43;;;;;;;5.90;5.40;;;;;;;31.72;44.27;98884.83;272043;1261;22204;-80
2023/07/16 13:57:45;;;;;;;6.60;6.00;;;;;;;31.74;43.88;98882.19;273815;1253;22154;-79
2023/07/16 14:03:47;;;;;;;8.50;6.90;;;;;;;31.75;44.94;98880.64;273498;1256;22412;-81
2023/07/16 14:09:49;;;;;;;7.60;6.90;;;;;;;31.58;45.89;98881.07;273643;1267;22409;-79
2023/07/16 14:15:58;;;;;;;7.90;7.10;;;;;;;31.38;46.01;98888.13;274061;1257;22368;-79
2023/07/16 14:22:00;;;;;;;9.60;7.70;;;;;;;31.32;45.66;98887.79;273463;1260;22349;-79
2023/07/16 14:28:01;;;;;;;8.70;7.60;;;;;;;31.33;46.69;98882.91;273514;1267;22272;-79
2023/07/16 14:34:07;;;;;;;8.50;7.70;;;;;;;31.18;47.97;98881.52;273634;1269;22128;-79
2023/07/16 14:40:13;;;;;;;9.70;7.90;;;;;;;30.97;48.23;98881.04;273317;1261;23949;-81
2023/07/16 14:46:16;;;;;;;8.60;7.50;;;;;;;30.77;48.48;98877.70;273177;1257;22280;-80
2023/07/16 14:52:19;;;;;;;8.50;7.80;;;;;;;30.66;49.21;98871.98;273628;1267;22458;-80
2023/07/16 14:58:22;;;;;;;9.70;7.70;;;;;;;30.64;48.54;98866.55;273581;1267;22363;-80
2023/07/16 15:04:24;;;;;;;7.40;6.60;;;;;;;30.73;48.75;98860.48;273731;1267;22211;-80
2023/07/16 15:10:27;;;;;;;7.30;6.60;;;;;;;30.76;49.11;98855.80;273418;1267;23451;-80
2023/07/16 15:16:29;;;;;;;9.60;8.70;;;;;;;30.83;49.17;98853.20;273333;1269;222458;-80
2023/07/16 15:22:33;;;;;;;9.70;8.80;;;;;;;30.89;49.11;98844.26;274055;1269;23578;-79
2023/07/16 15:28:41;;;;;;;9.60;8.70;;;;;;;30.94;48.98;98839.52;273577;1257;23135;-80
2023/07/16 15:34:43;;;;;;;11.10;9.80;;;;;;;30.88;49.31;98836.09;273851;1269;22697;-80
2023/07/16 15:40:45;;;;;;;10.20;9.40;;;;;;;30.73;50.04;98847.80;273470;1269;22201;-80
2023/07/16 15:46:50;;;;;;;10.30;9.40;;;;;;;30.52;50.49;98850.26;273526;1264;22211;-80
2023/07/16 15:52:53;;;;;;;11.10;9.40;;;;;;;30.26;50.41;98838.48;273293;1268;23761;-80
2023/07/16 15:58:55;;;;;;;10.30;9.30;;;;;;;30.05;51.56;98839.09;271160;1269;22550;-80
2023/07/16 16:04:56;;;;;;;10.60;9.60;;;;;;;29.79;52.15;98848.63;271126;1269;22456;-79
2023/07/16 16:11:06;;;;;;;11.50;10.50;;;;;;;29.60;53.17;98848.79;271244;1269;22980;-79
2023/07/16 16:17:10;;;;;;;11.60;10.50;;;;;;;29.44;54.17;98865.33;270693;1269;22219;-79
2023/07/16 16:23:12;;;;;;;11.80;10.70;;;;;;;29.25;55.45;98884.55;273170;1256;22539;-80
2023/07/16 16:29:14;;;;;;;12.30;11.10;;;;;;;29.07;56.09;98880.54;265472;1257;10002460;-79
2023/07/16 16:35:16;;;;;;;15.20;11.50;;;;;;;28.97;57.31;98882.04;273349;1268;22166;-80
2023/07/16 16:41:18;;;;;;;14.80;10.80;;;;;;;28.85;57.95;98888.00;273479;1265;23762;-79
2023/07/16 16:47:20;;;;;;;13.10;12.00;;;;;;;28.70;58.93;98886.30;273365;1269;24027;-80
2023/07/16 16:53:21;;;;;;;14.50;13.20;;;;;;;28.55;61.17;98878.02;273443;1268;22371;-79
2023/07/16 16:59:23;;;;;;;14.40;13.00;;;;;;;28.51;62.57;98867.34;273445;1268;22451;-79
2023/07/16 17:05:24;;;;;;;13.00;11.70;;;;;;;28.48;63.08;98868.05;273440;1269;22263;-79
2023/07/16 17:11:34;;;;;;;16.20;13.10;;;;;;;28.49;63.47;98871.77;274075;1275;24141;-79
2023/07/16 17:17:36;;;;;;;14.20;12.90;;;;;;;28.55;64.40;98869.79;273513;1267;22477;-80
2023/07/16 17:23:38;;;;;;;14.70;13.40;;;;;;;28.61;64.75;98883.70;273565;1269;23702;-79
2023/07/16 17:29:42;;;;;;;13.90;12.70;;;;;;;28.59;64.17;98887.67;273511;1268;22251;-79
2023/07/16 17:35:43;;;;;;;14.40;12.90;;;;;;;28.58;64.39;98900.52;273481;1269;22107;-79
2023/07/16 17:41:45;;;;;;;15.50;13.20;;;;;;;28.57;65.58;98913.82;273505;1257;22212;-79
2023/07/16 17:47:51;;;;;;;13.70;12.40;;;;;;;28.50;66.06;98921.29;273547;1268;22440;-79
2023/07/16 17:54:09;;;;;;;;;;;;;;;28.42;66.41;98924.30;273552;1268;22465;-79
2023/07/16 18:00:13;;;;;;;12.90;11.30;;;;;;;28.33;66.54;98919.91;273397;1269;22404;-79
2023/07/16 18:06:16;;;;;;;14.30;12.90;;;;;;;28.29;67.66;98923.91;271403;1269;22607;-81
2023/07/16 18:12:20;;;;;;;14.40;13.20;;;;;;;28.17;68.26;98926.09;272973;1259;22309;-79
2023/07/16 18:18:33;;;;;;;15.10;13.80;;;;;;;28.06;68.95;98929.09;273437;1269;22270;-79
2023/07/16 18:24:35;;;;;;;15.00;13.50;;;;;;;28.01;70.28;98939.27;273583;1269;22213;-79
2023/07/16 18:30:37;;;;;;;16.80;15.10;;;;;;;27.95;71.03;98947.11;272821;1269;22606;-79
2023/07/16 18:36:39;;;;;;;14.90;13.40;;;;;;;27.83;70.79;98958.08;272713;1269;23523;-79
2023/07/16 18:42:48;;;;;;;17.10;14.20;;;;;;;27.76;70.77;98959.83;273447;1269;22390;-79
2023/07/16 18:48:53;;;;;;;15.60;13.30;;;;;;;27.63;71.02;98973.05;273485;1268;22408;-79
2023/07/16 18:54:56;;;;;;;14.70;13.30;;;;;;;27.48;71.03;98980.52;273387;1256;23423;-78
2023/07/16 19:00:58;;;;;;;14.10;12.40;;;;;;;27.37;70.96;98985.41;273404;1268;22572;-79
2023/07/16 19:07:00;;;;;;;15.40;13.90;;;;;;;27.32;71.13;98986.15;273377;1269;22384;-78
2023/07/16 19:13:02;;;;;;;13.50;12.10;;;;;;;27.25;71.14;98981.73;273426;1260;22952;-79
2023/07/16 19:19:04;;;;;;;14.40;13.00;;;;;;;27.05;71.31;98989.98;273457;1264;22376;-79
2023/07/16 19:25:06;;;;;;;16.60;14.30;;;;;;;26.87;72.06;99002.59;273459;1257;22566;-82
2023/07/16 19:31:08;;;;;;;15.50;14.10;;;;;;;26.70;72.77;99008.23;273492;1269;23589;-78
2023/07/16 19:37:13;;;;;;;17.00;14.70;;;;;;;26.56;73.28;99004.91;273512;1269;22172;-79
2023/07/16 19:43:15;;;;;;;16.40;14.70;;;;;;;26.35;73.34;99002.40;273545;1269;22447;-79
2023/07/16 19:49:16;;;;;;;18.10;14.90;;;;;;;26.15;74.41;99007.73;273367;1269;22889;-79
2023/07/16 19:55:21;;;;;;;16.20;14.50;;;;;;;26.01;75.15;99014.52;273565;1269;23000;-79
2023/07/16 20:01:23;;;;;;;17.30;15.50;;;;;;;25.82;75.74;99017.98;272083;1260;22415;-81
2023/07/16 20:07:26;;;;;;;18.60;16.80;;;;;;;25.67;76.71;99022.06;273418;1269;22192;-79
2023/07/16 20:13:31;;;;;;;18.20;16.40;;;;;;;25.45;77.63;99023.45;273583;1259;22338;-81
2023/07/16 20:19:33;;;;;;;21.10;16.60;;;;;;;25.26;78.54;99028.70;273680;1268;22116;-80
2023/07/16 20:25:36;;;;;;;19.20;17.20;;;;;;;25.13;79.17;99043.13;274032;1256;22813;-79
2023/07/16 20:31:38;;;;;;;19.20;17.20;;;;;;;24.89;79.73;99050.34;273586;1268;22476;-79
2023/07/16 20:37:39;;;;;;;22.80;18.20;;;;;;;24.71;79.98;99054.84;273615;1253;22407;-80
2023/07/16 20:43:42;;;;;;;19.90;18.00;;;;;;;24.60;81.00;99055.70;273653;1253;22439;-81
2023/07/16 20:49:44;;;;;;;20.70;18.50;;;;;;;24.53;81.81;99059.96;273524;1267;22442;-80
2023/07/16 20:55:46;;;;;;;20.40;18.40;;;;;;;24.40;82.81;99067.09;273651;1269;23307;-79
2023/07/16 21:01:47;;;;;;;19.90;18.00;;;;;;;24.35;83.27;99065.22;273525;1269;22249;-80
2023/07/16 21:07:49;;;;;;;19.90;17.90;;;;;;;24.23;83.69;99056.02;273354;1259;22484;-80
2023/07/16 21:13:51;;;;;;;20.30;18.30;;;;;;;24.10;84.17;99058.48;273555;1269;23672;-79
2023/07/16 21:19:54;;;;;;;24.60;20.10;;;;;;;23.92;84.90;99058.58;273665;1253;22401;-79
2023/07/16 21:25:56;;;;;;;22.10;20.00;;;;;;;23.79;85.64;99066.40;273479;1257;22488;-79
2023/07/16 21:31:57;;;;;;;19.60;17.90;;;;;;;23.62;86.32;99062.92;273688;1264;22369;-79
2023/07/16 21:38:19;;;;;;;20.60;18.60;;;;;;;23.56;87.41;99058.45;273651;1268;22333;-79
2023/07/16 21:44:41;;;;;;;17.50;15.60;;;;;;;23.58;86.75;99052.39;273662;1269;22201;-80
2023/07/16 21:51:23;;;;;;;19.30;17.40;;;;;;;23.65;87.30;99056.20;273677;1269;22431;-79
2023/07/16 21:57:33;;;;;;;17.90;16.20;;;;;;;23.54;87.65;99056.16;273577;1269;22158;-79
2023/07/16 22:03:35;;;;;;;19.90;17.60;;;;;;;23.39;87.89;99058.43;273176;1269;22505;-79
2023/07/16 22:09:37;;;;;;;19.60;17.70;;;;;;;23.28;88.46;99063.66;270770;1259;24316;-78
2023/07/16 22:15:38;;;;;;;19.90;18.10;;;;;;;23.13;88.88;99065.08;271991;1269;22265;-79
2023/07/16 22:21:42;;;;;;;18.60;16.80;;;;;;;23.00;89.59;99067.73;271650;1269;23048;-79
2023/07/16 22:27:43;;;;;;;19.30;17.40;;;;;;;22.91;90.24;99073.52;270516;1269;22528;-79
2023/07/16 22:33:47;;;;;;;18.80;17.00;;;;;;;22.85;91.02;99077.09;271289;1269;23314;-80
2023/07/16 22:39:54;;;;;;;17.80;15.90;;;;;;;22.87;91.64;99080.05;270982;1252;25533;-79
2023/07/16 22:45:55;;;;;;;;;;;;;;;22.81;92.08;99086.30;272824;1268;22533;-79
2023/07/16 22:51:57;;;;;;;17.60;16.00;;;;;;;22.65;92.43;99091.86;273470;1267;23163;-78
2023/07/16 22:57:58;;;;;;;21.90;16.60;;;;;;;22.54;92.92;99091.91;273591;1269;22263;-79
2023/07/16 23:04:00;;;;;;;18.30;16.50;;;;;;;22.43;93.26;99094.04;272311;1269;24917;-78
2023/07/16 23:10:02;;;;;;;20.30;18.20;;;;;;;22.36;93.55;99098.38;271179;1269;23503;-78
2023/07/16 23:16:16;;;;;;;19.80;17.90;;;;;;;22.19;93.39;99106.27;271923;1269;22223;-78
2023/07/16 23:22:17;;;;;;;20.40;18.40;;;;;;;22.10;94.97;99109.13;270079;1269;22525;-80
2023/07/16 23:28:20;;;;;;;19.10;17.20;;;;;;;22.14;95.71;99114.89;270200;1269;23628;-79
2023/07/16 23:34:23;;;;;;;19.60;17.60;;;;;;;22.04;95.55;99108.04;273612;1269;23047;-79
2023/07/16 23:40:25;;;;;;;19.60;17.80;;;;;;;21.96;96.07;99093.83;270328;1269;22242;-79
2023/07/16 23:46:26;;;;;;;20.00;17.90;;;;;;;22.00;96.79;99093.02;272707;1269;22603;-79
2023/07/16 23:52:32;;;;;;;18.70;16.90;;;;;;;22.02;97.10;99097.77;273429;1268;22215;-79
2023/07/16 23:58:34;;;;;;;19.90;18.00;;;;;;;21.99;97.06;99096.98;273564;1259;22735;-79
